Terminal Aerodrome Forecast
Issued by NWS

Home | Current Version | Previous Version | Text Only | Print | Product List | Glossary On
Versions: 1 2 3 4 5 6 7 8 9 10 11 12 13 14 15 16 17 18 19 20 21 22 23
000
FTUS43 KDLH 250800 AAA
TAFBRD
TAF AMD
KBRD 250846Z 2509/2606 17007KT P6SM SCT035 BKN070
      TEMPO 2509/2512 4SM TSRA BR BKN025CB
     FM251500 20007KT P6SM VCSH SCT050 BKN100
     FM260000 VRB03KT P6SM SCT015=

USA.gov is the U.S. government's official web portal to all federal, state and local government web resources and services.